createdAt,value
2023-04-29T00:01:25.998Z,14.60
2023-04-29T00:03:53.726Z,14.60
2023-04-29T00:06:21.519Z,14.70
2023-04-29T00:08:48.539Z,14.70
2023-04-29T00:11:15.529Z,14.70
2023-04-29T00:13:42.446Z,14.80
2023-04-29T00:16:12.850Z,14.80
2023-04-29T00:18:39.778Z,14.80
2023-04-29T00:21:06.779Z,14.80
2023-04-29T00:23:34.566Z,14.80
2023-04-29T00:26:01.538Z,14.80
2023-04-29T00:28:28.593Z,14.80
2023-04-29T00:30:56.204Z,14.80
2023-04-29T00:33:23.474Z,14.80
2023-04-29T00:35:50.907Z,14.90
2023-04-29T00:38:17.824Z,14.90
2023-04-29T00:40:45.409Z,15.00
2023-04-29T00:43:12.632Z,15.00
2023-04-29T00:45:40.360Z,15.00
2023-04-29T00:48:07.850Z,14.90
2023-04-29T00:50:36.752Z,15.00
2023-04-29T00:53:04.267Z,14.90
2023-04-29T00:55:32.893Z,14.80
2023-04-29T00:58:02.619Z,14.80
2023-04-29T01:00:30.262Z,14.80
2023-04-29T01:02:59.736Z,14.70
2023-04-29T01:05:27.097Z,14.70
2023-04-29T01:08:32.733Z,14.60
2023-04-29T01:11:09.820Z,14.70
2023-04-29T01:13:58.970Z,14.70
2023-04-29T01:16:38.800Z,14.70
2023-04-29T01:19:33.628Z,14.70
2023-04-29T01:22:00.563Z,14.70
2023-04-29T01:24:27.477Z,14.70
2023-04-29T01:27:14.414Z,14.70
2023-04-29T01:29:54.309Z,14.80
2023-04-29T01:32:47.869Z,14.80
2023-04-29T01:35:17.673Z,14.80
2023-04-29T01:37:57.926Z,14.80
2023-04-29T01:40:38.663Z,14.80
2023-04-29T01:43:16.856Z,14.80
2023-04-29T01:45:47.245Z,14.70
2023-04-29T01:48:16.653Z,14.70
2023-04-29T01:50:44.589Z,14.70
2023-04-29T01:53:13.197Z,14.70
2023-04-29T01:55:40.401Z,14.70
2023-04-29T01:58:21.955Z,14.70
2023-04-29T02:01:10.439Z,14.70
2023-04-29T02:03:37.915Z,14.60
2023-04-29T02:06:08.056Z,14.60
2023-04-29T02:08:36.351Z,14.60
2023-04-29T02:11:03.411Z,14.60
2023-04-29T02:13:36.952Z,14.60
2023-04-29T02:16:11.913Z,14.60
2023-04-29T02:18:44.405Z,14.60
2023-04-29T02:21:12.288Z,14.60
2023-04-29T02:23:39.493Z,14.60
2023-04-29T02:26:07.015Z,14.70
2023-04-29T02:28:35.089Z,14.70
2023-04-29T02:31:02.395Z,14.60
2023-04-29T02:33:30.760Z,14.60
2023-04-29T02:35:57.688Z,14.70
2023-04-29T02:38:24.620Z,14.70
2023-04-29T02:40:51.857Z,14.70
2023-04-29T02:43:18.805Z,14.70
2023-04-29T02:45:45.844Z,14.60
2023-04-29T02:48:13.133Z,14.70
2023-04-29T02:50:40.856Z,14.70
2023-04-29T02:53:07.834Z,14.70
2023-04-29T02:55:34.778Z,14.70
2023-04-29T02:58:07.561Z,14.70
2023-04-29T03:00:34.485Z,14.70
2023-04-29T03:03:01.969Z,14.70
2023-04-29T03:05:29.170Z,14.70
2023-04-29T03:07:56.228Z,14.70
2023-04-29T03:10:23.222Z,14.70
2023-04-29T03:12:50.211Z,14.60
2023-04-29T03:15:17.401Z,14.60
2023-04-29T03:17:46.532Z,14.60
2023-04-29T03:20:14.179Z,14.60
2023-04-29T03:22:41.210Z,14.60
2023-04-29T03:25:10.606Z,14.60
2023-04-29T03:27:39.577Z,14.60
2023-04-29T03:30:08.010Z,14.60
2023-04-29T03:32:38.736Z,14.60
2023-04-29T03:35:06.246Z,14.60
2023-04-29T03:37:40.141Z,14.60
2023-04-29T03:40:22.401Z,14.60
2023-04-29T03:42:50.562Z,14.60
2023-04-29T03:45:18.741Z,14.60
2023-04-29T03:47:45.673Z,14.70
2023-04-29T03:50:12.696Z,14.70
2023-04-29T03:52:41.049Z,14.70
2023-04-29T03:55:14.302Z,14.70
2023-04-29T03:57:42.815Z,14.60
2023-04-29T04:00:11.471Z,14.60
2023-04-29T04:02:45.176Z,14.60
2023-04-29T04:05:13.269Z,14.60
2023-04-29T04:07:43.814Z,14.60
2023-04-29T04:10:31.067Z,14.60
2023-04-29T04:12:59.712Z,14.60
2023-04-29T04:15:26.875Z,14.60
2023-04-29T04:17:54.017Z,14.60
2023-04-29T04:20:21.003Z,14.60
2023-04-29T04:22:49.776Z,14.60
2023-04-29T04:25:21.377Z,14.60
2023-04-29T04:27:48.982Z,14.60
2023-04-29T04:30:27.413Z,14.60
2023-04-29T04:32:54.804Z,14.60
2023-04-29T04:35:22.081Z,14.60
2023-04-29T04:37:50.285Z,14.60
2023-04-29T04:40:17.259Z,14.60
2023-04-29T04:43:17.571Z,14.70
2023-04-29T04:45:44.657Z,14.70
2023-04-29T04:48:11.684Z,14.70
2023-04-29T04:50:40.226Z,14.70
2023-04-29T04:53:07.327Z,14.70
2023-04-29T04:56:03.577Z,14.70
2023-04-29T04:58:32.667Z,14.70
2023-04-29T05:01:02.874Z,14.80
2023-04-29T05:03:30.050Z,14.80
2023-04-29T05:06:00.817Z,14.80
2023-04-29T05:08:28.645Z,14.80
2023-04-29T05:10:58.709Z,14.80
2023-04-29T05:13:26.091Z,14.80
2023-04-29T05:15:53.861Z,14.90
2023-04-29T05:18:24.579Z,14.90
2023-04-29T05:20:52.601Z,14.90
2023-04-29T05:23:19.648Z,15.00
2023-04-29T05:25:47.240Z,15.00
2023-04-29T05:28:16.882Z,15.10
2023-04-29T05:30:44.985Z,15.10
2023-04-29T05:33:12.257Z,15.20
2023-04-29T05:35:39.730Z,15.20
2023-04-29T05:38:06.803Z,15.30
2023-04-29T05:40:39.812Z,15.40
2023-04-29T05:43:29.732Z,15.50
2023-04-29T05:45:57.737Z,15.70
2023-04-29T05:48:25.203Z,16.00
2023-04-29T05:50:53.936Z,16.20
2023-04-29T05:53:21.000Z,16.30
2023-04-29T05:55:51.211Z,16.30
2023-04-29T05:58:20.543Z,16.40
2023-04-29T06:00:49.545Z,16.40
2023-04-29T06:03:21.856Z,16.50
2023-04-29T06:05:56.434Z,16.50
2023-04-29T06:08:53.613Z,16.60
2023-04-29T06:11:25.191Z,16.80
2023-04-29T06:13:52.604Z,16.80
2023-04-29T06:16:20.617Z,16.80
2023-04-29T06:18:47.597Z,16.80
2023-04-29T06:21:16.339Z,16.80
2023-04-29T06:23:43.639Z,16.70
2023-04-29T06:26:16.479Z,16.70
2023-04-29T06:28:43.621Z,16.80
2023-04-29T06:31:11.174Z,16.90
2023-04-29T06:33:38.275Z,16.90
2023-04-29T06:36:06.135Z,17.20
2023-04-29T06:38:51.770Z,17.40
2023-04-29T06:41:37.088Z,17.70
2023-04-29T06:44:33.404Z,17.90
2023-04-29T06:47:20.196Z,17.80
2023-04-29T06:50:13.173Z,17.70
2023-04-29T06:52:40.186Z,17.70
2023-04-29T06:55:07.601Z,17.70
2023-04-29T06:57:35.208Z,17.60
2023-04-29T07:00:02.212Z,17.60
2023-04-29T07:02:29.295Z,17.60
2023-04-29T07:04:56.574Z,17.60
2023-04-29T07:07:23.800Z,17.60
2023-04-29T07:09:52.857Z,17.60
2023-04-29T07:12:20.830Z,17.60
2023-04-29T07:14:48.017Z,17.70
2023-04-29T07:17:14.991Z,17.60
2023-04-29T07:19:42.715Z,17.60
2023-04-29T07:22:10.861Z,17.60
2023-04-29T07:24:37.884Z,17.50
2023-04-29T07:27:04.933Z,17.50
2023-04-29T07:29:32.650Z,17.60
2023-04-29T07:31:59.605Z,17.60
2023-04-29T07:34:27.424Z,17.60
2023-04-29T07:36:54.574Z,17.60
2023-04-29T07:39:21.694Z,17.70
2023-04-29T07:41:53.810Z,17.80
2023-04-29T07:44:21.938Z,17.80
2023-04-29T07:46:49.004Z,18.00
2023-04-29T07:49:16.928Z,18.20
2023-04-29T07:51:44.238Z,18.40
2023-04-29T07:54:11.225Z,18.60
2023-04-29T07:56:38.151Z,18.60
2023-04-29T07:59:07.304Z,18.60
2023-04-29T08:01:34.261Z,18.60
2023-04-29T08:04:01.904Z,18.70
2023-04-29T08:06:29.515Z,18.60
2023-04-29T08:08:56.732Z,18.60
2023-04-29T08:11:24.612Z,18.70
2023-04-29T08:13:51.903Z,18.80
2023-04-29T08:16:19.229Z,19.00
2023-04-29T08:18:46.261Z,19.20
2023-04-29T08:21:13.348Z,19.40
2023-04-29T08:23:40.705Z,19.80
2023-04-29T08:26:09.657Z,20.20
2023-04-29T08:28:36.598Z,20.50
2023-04-29T08:31:03.657Z,20.50
2023-04-29T08:33:30.595Z,20.60
2023-04-29T08:36:01.606Z,20.80
2023-04-29T08:38:28.432Z,21.20
2023-04-29T08:40:56.413Z,21.40
2023-04-29T08:43:23.670Z,21.70
2023-04-29T08:45:50.773Z,22.40
2023-04-29T08:48:17.862Z,23.20
2023-04-29T08:50:45.134Z,23.90
2023-04-29T08:53:13.246Z,24.20
2023-04-29T08:55:44.110Z,24.70
2023-04-29T08:58:12.214Z,24.70
2023-04-29T09:00:40.177Z,24.60
2023-04-29T09:03:27.326Z,24.30
2023-04-29T09:05:55.301Z,23.90
2023-04-29T09:08:23.974Z,23.80
2023-04-29T09:10:54.549Z,23.60
2023-04-29T09:13:25.863Z,23.20
2023-04-29T09:15:52.764Z,22.90
2023-04-29T09:18:38.117Z,22.60
2023-04-29T09:21:12.945Z,22.30
2023-04-29T09:23:39.850Z,22.20
2023-04-29T09:26:06.654Z,22.20
2023-04-29T09:28:34.718Z,22.50
2023-04-29T09:31:06.533Z,22.60
2023-04-29T09:33:49.443Z,22.80
2023-04-29T09:36:35.262Z,22.80
2023-04-29T09:39:02.340Z,23.20
2023-04-29T09:41:29.492Z,23.20
2023-04-29T09:44:14.247Z,23.40
2023-04-29T09:46:41.233Z,23.90
2023-04-29T09:49:24.984Z,24.40
2023-04-29T09:51:52.658Z,24.80
2023-04-29T09:54:23.175Z,24.90
2023-04-29T09:56:51.806Z,25.20
2023-04-29T09:59:21.805Z,25.40
2023-04-29T10:01:49.815Z,25.60
2023-04-29T10:04:17.678Z,25.80
2023-04-29T10:06:45.170Z,26.20
2023-04-29T10:09:16.272Z,27.50
2023-04-29T10:11:44.782Z,28.60
2023-04-29T10:14:16.790Z,29.60
2023-04-29T10:16:59.074Z,29.90
2023-04-29T10:19:34.541Z,29.90
2023-04-29T10:22:05.680Z,29.90
2023-04-29T10:24:34.545Z,29.30
2023-04-29T10:27:02.963Z,29.10
2023-04-29T10:29:30.315Z,29.20
2023-04-29T10:31:57.402Z,28.80
2023-04-29T10:34:24.850Z,28.00
2023-04-29T10:36:51.661Z,27.10
2023-04-29T10:39:26.246Z,26.50
2023-04-29T10:41:53.973Z,25.90
2023-04-29T10:44:20.808Z,25.30
2023-04-29T10:46:47.667Z,25.20
2023-04-29T10:49:15.203Z,25.40
2023-04-29T10:51:43.077Z,25.60
2023-04-29T10:54:25.477Z,25.60
2023-04-29T10:56:53.420Z,25.80
2023-04-29T10:59:43.296Z,26.20
2023-04-29T11:02:10.473Z,26.30
2023-04-29T11:04:57.411Z,26.60
2023-04-29T11:07:28.478Z,27.00
2023-04-29T11:09:55.917Z,27.50
2023-04-29T11:12:23.086Z,28.10
2023-04-29T11:14:50.877Z,28.50
2023-04-29T11:17:20.402Z,28.70
2023-04-29T11:19:50.816Z,29.30
2023-04-29T11:22:24.220Z,30.10
2023-04-29T11:24:58.808Z,30.80
2023-04-29T11:27:35.992Z,31.30
2023-04-29T11:30:05.485Z,31.30
2023-04-29T11:32:33.804Z,31.10
2023-04-29T11:35:10.684Z,31.10
2023-04-29T11:37:37.908Z,30.50
2023-04-29T11:40:05.898Z,30.20
2023-04-29T11:42:34.747Z,29.90
2023-04-29T11:45:01.653Z,30.00
2023-04-29T11:47:29.566Z,30.00
2023-04-29T11:50:03.658Z,30.40
2023-04-29T11:52:30.832Z,30.70
2023-04-29T11:54:58.136Z,30.60
2023-04-29T11:57:25.685Z,30.40
2023-04-29T11:59:53.538Z,30.30
2023-04-29T12:02:23.812Z,30.40
2023-04-29T12:04:51.143Z,30.50
2023-04-29T12:07:19.006Z,30.50
2023-04-29T12:09:48.839Z,30.30
2023-04-29T12:12:16.291Z,30.40
2023-04-29T12:14:43.344Z,30.60
2023-04-29T12:17:10.450Z,30.40
2023-04-29T12:19:38.615Z,30.50
2023-04-29T12:22:08.072Z,30.90
2023-04-29T12:24:38.946Z,31.10
2023-04-29T12:27:08.884Z,30.70
2023-04-29T12:29:36.254Z,30.40
2023-04-29T12:32:03.168Z,30.40
2023-04-29T12:34:31.087Z,30.00
2023-04-29T12:37:01.944Z,29.40
2023-04-29T12:39:28.981Z,29.40
2023-04-29T12:41:57.869Z,29.20
2023-04-29T12:44:25.468Z,29.00
2023-04-29T12:46:57.796Z,28.80
2023-04-29T12:49:25.492Z,28.70
2023-04-29T12:51:52.320Z,28.60
2023-04-29T12:54:19.213Z,28.60
2023-04-29T12:56:48.576Z,28.80
2023-04-29T12:59:17.026Z,28.80
2023-04-29T13:01:43.851Z,29.00
2023-04-29T13:04:12.080Z,29.40
2023-04-29T13:06:39.643Z,29.70
2023-04-29T13:09:07.237Z,29.10
2023-04-29T13:11:34.877Z,28.60
2023-04-29T13:14:01.912Z,28.40
2023-04-29T13:16:28.934Z,28.10
2023-04-29T13:19:08.530Z,27.50
2023-04-29T13:21:44.002Z,27.00
2023-04-29T13:24:10.932Z,26.50
2023-04-29T13:26:38.228Z,26.30
2023-04-29T13:29:05.109Z,26.10
2023-04-29T13:31:32.376Z,25.80
2023-04-29T13:33:59.290Z,25.70
2023-04-29T13:36:28.344Z,25.50
2023-04-29T13:38:55.764Z,25.60
2023-04-29T13:41:22.841Z,25.70
2023-04-29T13:43:50.961Z,25.80
2023-04-29T13:46:20.727Z,25.80
2023-04-29T13:57:11.088Z,25.00
2023-04-29T13:59:38.148Z,24.90
2023-04-29T14:04:21.430Z,24.60
2023-04-29T14:06:48.400Z,24.40
2023-04-29T14:09:15.366Z,24.30
2023-04-29T14:11:42.277Z,24.20
2023-04-29T14:14:09.158Z,24.10
2023-04-29T14:16:36.798Z,24.10
2023-04-29T14:19:04.354Z,24.20
2023-04-29T14:21:33.169Z,24.20
2023-04-29T14:24:03.443Z,24.10
2023-04-29T14:26:31.024Z,24.10
2023-04-29T14:28:58.484Z,24.00
2023-04-29T14:31:29.693Z,24.00
2023-04-29T14:33:57.316Z,24.10
2023-04-29T14:36:24.452Z,24.10
2023-04-29T14:38:51.375Z,24.00
2023-04-29T14:41:18.265Z,23.80
2023-04-29T14:43:45.126Z,23.70
2023-04-29T14:46:11.993Z,23.70
2023-04-29T14:48:38.957Z,23.80
2023-04-29T14:51:06.353Z,23.80
2023-04-29T14:53:33.682Z,23.70
2023-04-29T14:56:01.355Z,23.70
2023-04-29T14:58:28.215Z,23.50
2023-04-29T15:00:55.170Z,23.30
2023-04-29T15:03:23.007Z,23.30
2023-04-29T15:05:51.154Z,23.20
2023-04-29T15:08:18.801Z,23.10
2023-04-29T15:10:47.834Z,23.00
2023-04-29T15:13:14.855Z,23.00
2023-04-29T15:15:41.923Z,23.10
2023-04-29T15:18:09.170Z,23.10
2023-04-29T15:20:37.026Z,23.00
2023-04-29T15:23:04.265Z,22.90
2023-04-29T15:25:33.461Z,22.90
2023-04-29T15:28:00.627Z,23.00
2023-04-29T15:30:27.570Z,22.90
2023-04-29T15:32:54.825Z,22.80
2023-04-29T15:35:21.732Z,22.80
2023-04-29T15:37:49.033Z,22.80
2023-04-29T15:40:16.681Z,22.70
2023-04-29T15:42:43.566Z,22.60
2023-04-29T15:45:10.808Z,22.60
2023-04-29T15:47:37.832Z,22.60
2023-04-29T15:50:04.873Z,22.50
2023-04-29T15:52:31.675Z,22.60
2023-04-29T15:54:58.561Z,22.60
2023-04-29T15:57:26.017Z,22.60
2023-04-29T15:59:53.214Z,22.50
2023-04-29T16:02:21.145Z,22.30
2023-04-29T16:04:48.389Z,22.10
2023-04-29T16:07:15.182Z,22.00
2023-04-29T16:09:42.420Z,21.80
2023-04-29T16:12:11.621Z,21.80
2023-04-29T16:14:38.540Z,21.80
2023-04-29T16:17:05.980Z,21.70
2023-04-29T16:19:35.205Z,21.60
2023-04-29T16:22:03.617Z,21.60
2023-04-29T16:24:30.435Z,21.60
2023-04-29T16:26:58.924Z,21.40
2023-04-29T16:29:25.920Z,21.30
2023-04-29T16:31:52.963Z,21.10
2023-04-29T16:34:20.211Z,21.00
2023-04-29T16:36:47.150Z,20.90
2023-04-29T16:39:14.111Z,20.90
2023-04-29T16:41:41.128Z,20.90
2023-04-29T16:44:08.595Z,20.80
2023-04-29T16:46:35.530Z,20.80
2023-04-29T16:49:03.026Z,20.80
2023-04-29T16:51:29.909Z,20.80
2023-04-29T16:53:56.742Z,20.70
2023-04-29T16:56:23.697Z,20.60
2023-04-29T16:58:50.534Z,20.60
2023-04-29T17:01:19.775Z,20.50
2023-04-29T17:03:47.421Z,20.50
2023-04-29T17:06:15.314Z,20.50
2023-04-29T17:08:43.118Z,20.50
2023-04-29T17:11:10.572Z,20.40
2023-04-29T17:13:37.407Z,20.50
2023-04-29T17:16:04.570Z,20.40
2023-04-29T17:18:31.430Z,20.40
2023-04-29T17:20:59.347Z,20.40
2023-04-29T17:23:26.196Z,20.30
2023-04-29T17:25:54.729Z,20.30
2023-04-29T17:28:21.644Z,20.30
2023-04-29T17:30:48.553Z,20.30
2023-04-29T17:33:17.415Z,20.30
2023-04-29T17:35:45.252Z,20.20
2023-04-29T17:38:12.290Z,20.10
2023-04-29T17:40:39.396Z,20.00
2023-04-29T17:43:06.304Z,19.90
2023-04-29T17:45:33.286Z,19.80
2023-04-29T17:48:00.709Z,19.70
2023-04-29T17:50:27.905Z,19.60
2023-04-29T17:52:54.799Z,19.50
2023-04-29T17:55:21.817Z,19.40
2023-04-29T17:57:48.737Z,19.30
2023-04-29T18:00:15.909Z,19.20
2023-04-29T18:02:42.899Z,19.10
2023-04-29T18:05:10.153Z,19.00
2023-04-29T18:07:37.105Z,18.90
2023-04-29T18:10:05.883Z,18.70
2023-04-29T18:12:33.186Z,18.60
2023-04-29T18:15:00.743Z,18.50
2023-04-29T18:17:27.805Z,18.40
2023-04-29T18:19:55.114Z,18.30
2023-04-29T18:22:22.221Z,18.20
2023-04-29T18:24:49.765Z,18.10
2023-04-29T18:27:16.717Z,18.00
2023-04-29T18:29:45.270Z,17.90
2023-04-29T18:32:12.313Z,17.80
2023-04-29T18:34:39.317Z,17.70
2023-04-29T18:37:06.677Z,17.70
2023-04-29T18:39:33.923Z,17.50
2023-04-29T18:42:00.966Z,17.50
2023-04-29T18:44:28.875Z,17.40
2023-04-29T18:46:55.915Z,17.30
2023-04-29T18:49:22.860Z,17.30
2023-04-29T18:51:49.987Z,17.20
2023-04-29T18:54:20.061Z,17.10
2023-04-29T18:56:49.476Z,17.10
2023-04-29T18:59:19.637Z,17.00
2023-04-29T19:01:48.335Z,17.00
2023-04-29T19:04:15.973Z,16.90
2023-04-29T19:06:43.441Z,16.90
2023-04-29T19:09:11.415Z,16.90
2023-04-29T19:11:38.588Z,16.90
2023-04-29T19:14:06.146Z,16.80
2023-04-29T19:16:35.505Z,16.80
2023-04-29T19:19:04.238Z,16.80
2023-04-29T19:21:35.839Z,16.70
2023-04-29T19:24:03.146Z,16.70
2023-04-29T19:26:32.860Z,16.70
2023-04-29T19:29:01.880Z,16.60
2023-04-29T19:31:29.098Z,16.60
2023-04-29T19:33:56.151Z,16.50
2023-04-29T19:36:23.219Z,16.50
2023-04-29T19:38:50.427Z,16.40
2023-04-29T19:41:17.968Z,16.40
2023-04-29T19:43:45.112Z,16.40
2023-04-29T19:46:12.972Z,16.30
2023-04-29T19:48:40.346Z,16.30
2023-04-29T19:51:08.503Z,16.30
2023-04-29T19:53:38.817Z,16.30
2023-04-29T19:56:06.077Z,16.30
2023-04-29T19:58:33.401Z,16.20
2023-04-29T20:01:00.785Z,16.10
2023-04-29T20:03:27.841Z,16.10
2023-04-29T20:05:55.211Z,16.10
2023-04-29T20:08:22.339Z,16.10
2023-04-29T20:10:49.383Z,16.00
2023-04-29T20:13:16.689Z,16.00
2023-04-29T20:15:43.954Z,16.00
2023-04-29T20:18:11.403Z,15.90
2023-04-29T20:20:38.453Z,15.90
2023-04-29T20:23:05.894Z,15.80
2023-04-29T20:25:33.058Z,15.80
2023-04-29T20:28:00.059Z,15.80
2023-04-29T20:30:27.231Z,15.70
2023-04-29T20:32:54.390Z,15.70
2023-04-29T20:35:21.653Z,15.70
2023-04-29T20:37:48.645Z,15.60
2023-04-29T20:40:15.622Z,15.60
2023-04-29T20:42:42.566Z,15.60
2023-04-29T20:45:11.547Z,15.60
2023-04-29T20:47:38.645Z,15.50
2023-04-29T20:50:06.904Z,15.50
2023-04-29T20:52:34.482Z,15.50
2023-04-29T20:55:01.567Z,15.50
2023-04-29T20:57:29.128Z,15.40
2023-04-29T20:59:56.226Z,15.40
2023-04-29T21:02:24.172Z,15.30
2023-04-29T21:04:51.842Z,15.30
2023-04-29T21:07:19.015Z,15.30
2023-04-29T21:09:46.167Z,15.30
2023-04-29T21:12:14.918Z,15.30
2023-04-29T21:14:42.700Z,15.20
2023-04-29T21:17:09.888Z,15.20
2023-04-29T21:19:37.724Z,15.20
2023-04-29T21:22:04.989Z,15.20
2023-04-29T21:24:32.226Z,15.20
2023-04-29T21:26:59.249Z,15.10
2023-04-29T21:29:26.507Z,15.10
2023-04-29T21:31:53.464Z,15.10
2023-04-29T21:34:25.750Z,15.10
2023-04-29T21:36:53.422Z,15.00
2023-04-29T21:39:20.548Z,15.00
2023-04-29T21:41:47.555Z,15.00
2023-04-29T21:44:14.502Z,14.90
2023-04-29T21:46:41.620Z,14.90
2023-04-29T21:49:08.936Z,14.90
2023-04-29T21:51:36.093Z,14.80
2023-04-29T21:54:08.445Z,14.80
2023-04-29T21:56:36.108Z,14.80
2023-04-29T21:59:03.458Z,14.80
2023-04-29T22:01:45.538Z,14.70
2023-04-29T22:04:12.475Z,14.70
2023-04-29T22:06:39.650Z,14.70
2023-04-29T22:09:07.312Z,14.70
2023-04-29T22:11:34.442Z,14.70
2023-04-29T22:14:01.586Z,14.60
2023-04-29T22:16:28.515Z,14.60
2023-04-29T22:18:57.517Z,14.60
2023-04-29T22:21:24.655Z,14.50
2023-04-29T22:23:51.764Z,14.50
2023-04-29T22:26:18.796Z,14.50
2023-04-29T22:28:45.870Z,14.50
2023-04-29T22:31:12.813Z,14.50
2023-04-29T22:33:39.768Z,14.40
2023-04-29T22:36:07.160Z,14.40
2023-04-29T22:38:35.007Z,14.40
2023-04-29T22:41:01.966Z,14.30
2023-04-29T22:43:28.964Z,14.30
2023-04-29T22:45:56.859Z,14.30
2023-04-29T22:48:27.300Z,14.20
2023-04-29T22:50:57.073Z,14.20
2023-04-29T22:53:24.080Z,14.30
2023-04-29T22:55:55.299Z,14.30
2023-04-29T22:58:24.650Z,14.20
2023-04-29T23:00:54.142Z,14.20
2023-04-29T23:03:21.293Z,14.10
2023-04-29T23:05:48.289Z,14.10
2023-04-29T23:08:16.118Z,14.10
2023-04-29T23:10:49.418Z,14.20
2023-04-29T23:13:17.070Z,14.10
2023-04-29T23:15:44.441Z,14.10
2023-04-29T23:18:11.890Z,14.10
2023-04-29T23:20:38.921Z,14.10
2023-04-29T23:23:06.036Z,14.10
2023-04-29T23:25:32.994Z,14.10
2023-04-29T23:27:59.946Z,14.10
2023-04-29T23:30:26.887Z,14.10
2023-04-29T23:32:53.925Z,14.10
2023-04-29T23:35:21.614Z,14.20
2023-04-29T23:37:48.540Z,14.20
2023-04-29T23:40:18.486Z,14.20
2023-04-29T23:42:45.505Z,14.30
2023-04-29T23:45:12.450Z,14.30
2023-04-29T23:47:39.410Z,14.30
2023-04-29T23:50:07.115Z,14.30
2023-04-29T23:52:34.063Z,14.30
2023-04-29T23:55:01.048Z,14.30
2023-04-29T23:57:27.994Z,14.30
2023-04-29T23:59:55.122Z,14.30
